Time;durP1;ratioP1;P1;durP2;ratioP2;P2;SDS_P1;SDS_P2;PMS_P1;PMS_P2;Temp;Humidity;BMP_temperature;BMP_pressure;BME280_temperature;BME280_humidity;BME280_pressure;Samples;Min_cycle;Max_cycle;Signal;HPM_P1;HPM_P2
2022/04/14 00:01:25;;;;;;;6.93;2.83;;;;;;;;;;5036102;28;20186;-70
2022/04/14 00:03:50;;;;;;;9.73;3.37;;;;;;;;;;5026969;28;20208;-70
2022/04/14 00:06:15;;;;;;;5.60;3.13;;;;;;;;;;5028757;28;20215;-71
2022/04/14 00:08:40;;;;;;;6.20;3.23;;;;;;;;;;5029539;28;20228;-71
2022/04/14 00:11:05;;;;;;;7.17;3.03;;;;;;;;;;5022643;28;20207;-70
2022/04/14 00:13:31;;;;;;;6.63;2.90;;;;;;;;;;5023001;28;20179;-70
2022/04/14 00:15:56;;;;;;;5.30;3.63;;;;;;;;;;5031770;28;20188;-70
2022/04/14 00:18:21;;;;;;;6.63;4.27;;;;;;;;;;5040903;28;20180;-70
2022/04/14 00:20:46;;;;;;;7.87;3.30;;;;;;;;;;5019837;28;20191;-70
2022/04/14 00:23:11;;;;;;;7.70;3.87;;;;;;;;;;5036541;28;20219;-71
2022/04/14 00:25:37;;;;;;;8.13;3.87;;;;;;;;;;5019758;28;20195;-71
2022/04/14 00:28:02;;;;;;;5.87;3.80;;;;;;;;;;5035668;28;20239;-70
2022/04/14 00:30:27;;;;;;;12.40;5.70;;;;;;;;;;5025625;28;20200;-71
2022/04/14 00:32:52;;;;;;;9.20;3.77;;;;;;;;;;5022576;28;20176;-70
2022/04/14 00:35:18;;;;;;;8.13;3.80;;;;;;;;;;5023238;28;20195;-70
2022/04/14 00:37:43;;;;;;;7.50;3.87;;;;;;;;;;5018713;28;20274;-71
2022/04/14 00:40:08;;;;;;;7.33;4.03;;;;;;;;;;5025726;28;20310;-70
2022/04/14 00:42:33;;;;;;;5.00;4.30;;;;;;;;;;5015497;28;20183;-70
2022/04/14 00:44:59;;;;;;;7.37;4.40;;;;;;;;;;5022900;28;20270;-70
2022/04/14 00:47:24;;;;;;;6.93;4.20;;;;;;;;;;5024427;28;20218;-71
2022/04/14 00:49:50;;;;;;;4.77;3.50;;;;;;;;;;5025438;28;20195;-70
2022/04/14 00:52:15;;;;;;;8.23;4.53;;;;;;;;;;5019507;28;20179;-70
2022/04/14 00:54:41;;;;;;;7.03;4.10;;;;;;;;;;5031548;28;20192;-71
2022/04/14 00:57:06;;;;;;;8.20;5.07;;;;;;;;;;5023929;28;20351;-71
2022/04/14 00:59:31;;;;;;;9.53;4.73;;;;;;;;;;5024753;28;20197;-71
2022/04/14 01:01:57;;;;;;;7.47;4.47;;;;;;;;;;5025040;28;20183;-70
2022/04/14 01:04:22;;;;;;;6.07;4.63;;;;;;;;;;5024756;28;20193;-71
2022/04/14 01:06:47;;;;;;;7.43;4.80;;;;;;;;;;5025223;28;20258;-71
2022/04/14 01:09:16;;;;;;;6.57;4.53;;;;;;;;;;5027989;28;20211;-70
2022/04/14 01:11:52;;;;;;;8.53;5.30;;;;;;;;;;5042534;28;20211;-70
2022/04/14 01:14:24;;;;;;;6.30;4.47;;;;;;;;;;5042715;28;20177;-71
2022/04/14 01:16:49;;;;;;;5.83;4.30;;;;;;;;;;5026893;28;20239;-71
2022/04/14 01:19:14;;;;;;;9.90;5.00;;;;;;;;;;5028943;28;20183;-71
2022/04/14 01:21:41;;;;;;;7.77;4.67;;;;;;;;;;5022745;28;20178;-71
2022/04/14 01:24:07;;;;;;;8.00;5.17;;;;;;;;;;5041175;28;20191;-70
2022/04/14 01:26:36;;;;;;;8.77;5.40;;;;;;;;;;5024258;28;20219;-70
2022/04/14 01:29:02;;;;;;;9.33;5.20;;;;;;;;;;5029306;28;20489;-71
2022/04/14 01:31:27;;;;;;;7.20;5.27;;;;;;;;;;5025518;28;20242;-70
2022/04/14 01:33:52;;;;;;;11.03;5.43;;;;;;;;;;5025997;28;20208;-71
2022/04/14 01:36:19;;;;;;;10.20;5.30;;;;;;;;;;5021086;28;20264;-71
2022/04/14 01:38:45;;;;;;;6.47;5.30;;;;;;;;;;5030905;28;20206;-71
2022/04/14 01:41:12;;;;;;;7.33;5.27;;;;;;;;;;5026196;28;20192;-71
2022/04/14 01:43:37;;;;;;;9.23;5.07;;;;;;;;;;5028960;28;20238;-71
2022/04/14 01:46:08;;;;;;;7.97;5.27;;;;;;;;;;5028534;28;20191;-71
2022/04/14 01:48:33;;;;;;;7.67;5.50;;;;;;;;;;5027607;28;20204;-70
2022/04/14 01:50:58;;;;;;;8.87;6.43;;;;;;;;;;5023208;28;20184;-71
2022/04/14 01:53:23;;;;;;;11.07;5.50;;;;;;;;;;5042495;28;20266;-71
2022/04/14 01:55:49;;;;;;;9.70;5.20;;;;;;;;;;5024669;28;20187;-70
2022/04/14 01:58:14;;;;;;;6.97;5.87;;;;;;;;;;5024134;28;20641;-70
2022/04/14 02:00:39;;;;;;;8.57;5.43;;;;;;;;;;5026515;28;20197;-70
2022/04/14 02:03:04;;;;;;;12.00;6.53;;;;;;;;;;5036542;28;20211;-71
2022/04/14 02:05:29;;;;;;;5.23;4.20;;;;;;;;;;5028321;28;20228;-71
2022/04/14 02:07:55;;;;;;;13.87;7.57;;;;;;;;;;5021587;28;20250;-71
2022/04/14 02:10:20;;;;;;;14.60;8.17;;;;;;;;;;5027118;28;20269;-71
2022/04/14 02:12:45;;;;;;;14.47;7.50;;;;;;;;;;5025356;28;20279;-71
2022/04/14 02:15:12;;;;;;;17.37;9.07;;;;;;;;;;5026628;28;20183;-71
2022/04/14 02:17:38;;;;;;;13.47;9.33;;;;;;;;;;5026720;28;20186;-71
2022/04/14 02:20:03;;;;;;;10.20;7.67;;;;;;;;;;5024870;28;20188;-71
2022/04/14 02:22:28;;;;;;;13.13;8.23;;;;;;;;;;5023159;28;20504;-71
2022/04/14 02:24:53;;;;;;;12.53;8.07;;;;;;;;;;5024809;28;20183;-71
2022/04/14 02:27:19;;;;;;;13.87;8.07;;;;;;;;;;5021946;28;20231;-70
2022/04/14 02:29:44;;;;;;;9.23;7.60;;;;;;;;;;5020521;28;20184;-71
2022/04/14 02:32:09;;;;;;;15.73;9.03;;;;;;;;;;5020879;28;20183;-71
2022/04/14 02:34:34;;;;;;;12.47;9.30;;;;;;;;;;5026103;28;20179;-71
2022/04/14 02:37:00;;;;;;;14.77;10.50;;;;;;;;;;5027951;28;20269;-70
2022/04/14 02:39:25;;;;;;;11.93;9.07;;;;;;;;;;5023958;28;20254;-71
2022/04/14 02:41:50;;;;;;;12.43;9.90;;;;;;;;;;5025457;28;20203;-71
2022/04/14 02:44:15;;;;;;;15.80;8.90;;;;;;;;;;5022476;28;20183;-71
2022/04/14 02:46:40;;;;;;;13.23;9.27;;;;;;;;;;5022860;28;20187;-70
2022/04/14 02:49:05;;;;;;;15.00;10.73;;;;;;;;;;5018141;28;20215;-71
2022/04/14 02:51:31;;;;;;;20.00;13.30;;;;;;;;;;5023711;28;20262;-71
2022/04/14 02:53:56;;;;;;;18.42;13.32;;;;;;;;;;5026118;28;20182;-71
2022/04/14 02:56:21;;;;;;;20.37;14.40;;;;;;;;;;5022668;28;20283;-70
2022/04/14 02:58:46;;;;;;;22.77;17.30;;;;;;;;;;5020705;28;20188;-71
2022/04/14 03:01:12;;;;;;;22.90;16.53;;;;;;;;;;5031244;28;20231;-71
2022/04/14 03:03:37;;;;;;;23.83;18.80;;;;;;;;;;5023983;28;21111;-71
2022/04/14 03:06:03;;;;;;;28.40;20.50;;;;;;;;;;5037288;28;20182;-71
2022/04/14 03:08:28;;;;;;;24.10;19.67;;;;;;;;;;5024786;28;20207;-71
2022/04/14 03:10:55;;;;;;;25.37;19.20;;;;;;;;;;5025832;28;20185;-70
2022/04/14 03:13:20;;;;;;;24.90;19.57;;;;;;;;;;5023369;28;20217;-70
2022/04/14 03:15:48;;;;;;;26.37;22.17;;;;;;;;;;5038178;28;20181;-70
2022/04/14 03:18:14;;;;;;;25.63;20.40;;;;;;;;;;5024705;28;20190;-71
2022/04/14 03:20:39;;;;;;;26.73;23.13;;;;;;;;;;5022475;28;20190;-71
2022/04/14 03:23:04;;;;;;;29.83;21.90;;;;;;;;;;5021996;28;20305;-71
2022/04/14 03:25:29;;;;;;;27.53;20.70;;;;;;;;;;5022750;28;20198;-71
2022/04/14 03:27:54;;;;;;;25.60;15.40;;;;;;;;;;5024453;28;20233;-71
2022/04/14 03:30:19;;;;;;;29.23;19.88;;;;;;;;;;5037651;28;20198;-70
2022/04/14 03:32:45;;;;;;;28.20;19.40;;;;;;;;;;5024098;28;20230;-71
2022/04/14 03:35:11;;;;;;;30.93;21.83;;;;;;;;;;5022687;28;20182;-71
2022/04/14 03:37:37;;;;;;;23.27;19.53;;;;;;;;;;5027365;28;20255;-71
2022/04/14 03:40:03;;;;;;;26.53;18.97;;;;;;;;;;5024256;28;20179;-71
2022/04/14 03:42:28;;;;;;;23.40;19.27;;;;;;;;;;5022858;28;20178;-71
2022/04/14 03:44:53;;;;;;;20.10;15.30;;;;;;;;;;5026539;28;20201;-71
2022/04/14 03:47:18;;;;;;;24.70;17.73;;;;;;;;;;5022700;28;20258;-71
2022/04/14 03:49:43;;;;;;;24.77;19.33;;;;;;;;;;5018426;28;20204;-71
2022/04/14 03:52:09;;;;;;;20.53;13.60;;;;;;;;;;5032393;28;20183;-71
2022/04/14 03:54:34;;;;;;;25.30;15.23;;;;;;;;;;5023820;28;20186;-71
2022/04/14 03:57:00;;;;;;;21.53;14.90;;;;;;;;;;5022813;28;20232;-71
2022/04/14 03:59:25;;;;;;;20.53;16.03;;;;;;;;;;5020321;28;20234;-71
2022/04/14 04:01:50;;;;;;;31.97;21.10;;;;;;;;;;5018457;28;20183;-70
2022/04/14 04:04:15;;;;;;;18.07;13.93;;;;;;;;;;5033049;28;20203;-71
2022/04/14 04:06:40;;;;;;;24.27;15.97;;;;;;;;;;5025961;28;20201;-70
2022/04/14 04:09:05;;;;;;;21.33;14.37;;;;;;;;;;5025943;28;20206;-70
2022/04/14 04:11:31;;;;;;;23.88;18.60;;;;;;;;;;5025733;28;20186;-71
2022/04/14 04:13:56;;;;;;;25.47;17.33;;;;;;;;;;5023291;28;20189;-73
2022/04/14 04:16:21;;;;;;;21.97;17.10;;;;;;;;;;5040535;28;20186;-73
2022/04/14 04:18:46;;;;;;;30.10;19.27;;;;;;;;;;5024002;28;20177;-73
2022/04/14 04:21:11;;;;;;;27.47;20.30;;;;;;;;;;5017856;28;20274;-73
2022/04/14 04:23:37;;;;;;;22.57;13.20;;;;;;;;;;5021173;28;20189;-73
2022/04/14 04:26:02;;;;;;;25.93;21.43;;;;;;;;;;5020002;28;20293;-73
2022/04/14 04:28:30;;;;;;;17.73;11.13;;;;;;;;;;5022673;28;20453;-73
2022/04/14 04:30:55;;;;;;;20.27;14.23;;;;;;;;;;5018592;28;20189;-73
2022/04/14 04:33:21;;;;;;;24.73;16.93;;;;;;;;;;5019182;28;20280;-73
2022/04/14 04:35:46;;;;;;;20.60;12.50;;;;;;;;;;5017988;28;20185;-73
2022/04/14 04:38:11;;;;;;;21.87;15.97;;;;;;;;;;5031620;28;20245;-73
2022/04/14 04:40:36;;;;;;;14.90;11.47;;;;;;;;;;5030128;28;20190;-73
2022/04/14 04:43:01;;;;;;;25.53;14.03;;;;;;;;;;5027095;28;20186;-73
2022/04/14 04:45:27;;;;;;;22.80;15.37;;;;;;;;;;5024537;28;20175;-73
2022/04/14 04:47:52;;;;;;;23.90;16.53;;;;;;;;;;5026816;28;20214;-73
2022/04/14 04:50:17;;;;;;;25.85;14.85;;;;;;;;;;5029797;28;20223;-73
2022/04/14 04:52:42;;;;;;;25.07;17.10;;;;;;;;;;5031490;28;20186;-73
2022/04/14 04:55:08;;;;;;;23.37;17.77;;;;;;;;;;5028788;28;20191;-73
2022/04/14 04:57:33;;;;;;;21.17;17.17;;;;;;;;;;5028007;28;20182;-73
2022/04/14 04:59:58;;;;;;;21.25;13.80;;;;;;;;;;5027759;28;20185;-73
2022/04/14 05:02:23;;;;;;;22.60;18.70;;;;;;;;;;5026458;28;20195;-73
2022/04/14 05:04:48;;;;;;;25.93;18.43;;;;;;;;;;5035458;28;20335;-73
2022/04/14 05:07:14;;;;;;;24.43;16.67;;;;;;;;;;5027166;28;20182;-73
2022/04/14 05:09:39;;;;;;;21.50;14.93;;;;;;;;;;5021884;28;20189;-73
2022/04/14 05:12:04;;;;;;;23.27;16.87;;;;;;;;;;5019624;28;20177;-73
2022/04/14 05:14:29;;;;;;;18.90;12.80;;;;;;;;;;5030395;28;20193;-73
2022/04/14 05:16:55;;;;;;;22.13;16.40;;;;;;;;;;5025553;28;20263;-73
2022/04/14 05:19:20;;;;;;;19.00;15.37;;;;;;;;;;5028429;28;20186;-73
2022/04/14 05:21:47;;;;;;;20.53;15.03;;;;;;;;;;5026878;28;20194;-73
2022/04/14 05:24:12;;;;;;;11.80;9.10;;;;;;;;;;5039567;28;20229;-73
2022/04/14 05:26:37;;;;;;;19.20;14.93;;;;;;;;;;5024527;28;20234;-72
2022/04/14 05:29:03;;;;;;;19.90;14.73;;;;;;;;;;5025310;28;20203;-73
2022/04/14 05:31:28;;;;;;;18.67;13.70;;;;;;;;;;5025343;28;20186;-73
2022/04/14 05:33:53;;;;;;;19.77;15.07;;;;;;;;;;5023448;28;20204;-73
2022/04/14 05:36:19;;;;;;;19.83;14.43;;;;;;;;;;5028683;28;20171;-73
2022/04/14 05:38:44;;;;;;;20.93;14.67;;;;;;;;;;5025775;28;20191;-73
2022/04/14 05:41:09;;;;;;;18.40;15.00;;;;;;;;;;5020958;28;20183;-73
2022/04/14 05:43:35;;;;;;;22.63;13.93;;;;;;;;;;5029562;28;20273;-73
2022/04/14 05:46:01;;;;;;;8.67;7.77;;;;;;;;;;5021102;28;20190;-73
2022/04/14 05:48:26;;;;;;;22.03;15.13;;;;;;;;;;5027422;28;20253;-73
2022/04/14 05:50:51;;;;;;;25.50;17.63;;;;;;;;;;5021097;28;20221;-73
2022/04/14 05:53:17;;;;;;;16.90;11.13;;;;;;;;;;5020974;28;20490;-73
2022/04/14 05:55:44;;;;;;;14.43;11.67;;;;;;;;;;5034434;28;20189;-73
2022/04/14 05:58:09;;;;;;;23.83;15.10;;;;;;;;;;5023321;28;20183;-73
2022/04/14 06:00:35;;;;;;;20.03;12.33;;;;;;;;;;5022341;28;20194;-73
2022/04/14 06:03:01;;;;;;;23.10;17.73;;;;;;;;;;5027381;28;20175;-73
2022/04/14 06:05:27;;;;;;;11.07;9.17;;;;;;;;;;5025526;28;20232;-73
2022/04/14 06:07:52;;;;;;;28.87;17.67;;;;;;;;;;5022099;28;20325;-73
2022/04/14 06:10:19;;;;;;;18.97;16.37;;;;;;;;;;5020703;28;20286;-73
2022/04/14 06:12:44;;;;;;;16.57;12.83;;;;;;;;;;5035030;28;20183;-73
2022/04/14 06:15:10;;;;;;;24.77;17.53;;;;;;;;;;5019696;28;20202;-73
2022/04/14 06:17:35;;;;;;;24.13;17.70;;;;;;;;;;5026853;28;20189;-73
2022/04/14 06:20:01;;;;;;;20.17;13.77;;;;;;;;;;5021612;28;20197;-73
2022/04/14 06:22:26;;;;;;;24.63;18.67;;;;;;;;;;5027814;28;20182;-73
2022/04/14 06:24:51;;;;;;;17.13;11.57;;;;;;;;;;5014309;28;20204;-73
2022/04/14 06:27:17;;;;;;;21.33;17.83;;;;;;;;;;5037144;28;20241;-73
2022/04/14 06:29:42;;;;;;;24.43;17.00;;;;;;;;;;5026926;28;20179;-73
2022/04/14 06:32:07;;;;;;;21.47;16.33;;;;;;;;;;5040293;28;20301;-73
2022/04/14 06:34:32;;;;;;;19.23;12.57;;;;;;;;;;5020380;28;20179;-73
2022/04/14 06:36:58;;;;;;;23.33;18.13;;;;;;;;;;5024977;28;20221;-73
2022/04/14 06:39:23;;;;;;;25.93;16.17;;;;;;;;;;5022809;28;20293;-73
2022/04/14 06:41:48;;;;;;;17.17;13.53;;;;;;;;;;5018630;28;20197;-73
2022/04/14 06:44:13;;;;;;;23.60;18.30;;;;;;;;;;5023390;28;20175;-73
2022/04/14 06:46:39;;;;;;;22.97;19.30;;;;;;;;;;5027604;28;20180;-73
2022/04/14 06:49:05;;;;;;;27.03;20.07;;;;;;;;;;5026742;28;20194;-73
2022/04/14 06:51:30;;;;;;;22.17;16.30;;;;;;;;;;5020016;28;20180;-73
2022/04/14 06:53:56;;;;;;;28.73;18.83;;;;;;;;;;5026264;28;20241;-73
2022/04/14 06:56:21;;;;;;;24.73;15.37;;;;;;;;;;5024418;28;20192;-73
2022/04/14 06:58:46;;;;;;;26.50;19.33;;;;;;;;;;5020537;28;20220;-73
2022/04/14 07:01:11;;;;;;;23.93;15.50;;;;;;;;;;5026263;28;20223;-73
2022/04/14 07:03:36;;;;;;;27.60;19.27;;;;;;;;;;5019530;28;20187;-73
2022/04/14 07:06:02;;;;;;;25.63;18.63;;;;;;;;;;5028597;28;20311;-73
2022/04/14 07:08:32;;;;;;;18.87;16.67;;;;;;;;;;5030246;28;20198;-73
2022/04/14 07:10:59;;;;;;;25.70;19.67;;;;;;;;;;5020365;28;20184;-73
2022/04/14 07:13:24;;;;;;;25.50;18.10;;;;;;;;;;5023006;28;20264;-73
2022/04/14 07:15:49;;;;;;;22.37;18.50;;;;;;;;;;5029544;28;20270;-73
2022/04/14 07:18:14;;;;;;;13.97;10.57;;;;;;;;;;5027867;28;20178;-73
2022/04/14 07:20:39;;;;;;;21.50;17.50;;;;;;;;;;5025993;28;20273;-73
2022/04/14 07:23:05;;;;;;;26.63;16.40;;;;;;;;;;5025014;28;20180;-73
2022/04/14 07:25:33;;;;;;;30.20;20.60;;;;;;;;;;5026407;28;20189;-72
2022/04/14 07:27:59;;;;;;;26.10;19.93;;;;;;;;;;5026533;28;20276;-72
2022/04/14 07:30:26;;;;;;;25.60;20.80;;;;;;;;;;5025997;28;20199;-73
2022/04/14 07:32:52;;;;;;;25.27;18.87;;;;;;;;;;5023656;28;20254;-72
2022/04/14 07:35:18;;;;;;;27.77;22.07;;;;;;;;;;5026817;28;20184;-73
2022/04/14 07:37:45;;;;;;;29.50;20.27;;;;;;;;;;5029373;28;20190;-73
2022/04/14 07:40:10;;;;;;;26.60;19.20;;;;;;;;;;5021998;28;20189;-73
2022/04/14 07:42:37;;;;;;;28.53;22.83;;;;;;;;;;5019695;28;20249;-73
2022/04/14 07:45:03;;;;;;;29.50;22.13;;;;;;;;;;5034392;28;20190;-73
2022/04/14 07:47:28;;;;;;;26.00;19.70;;;;;;;;;;5027975;28;20171;-73
2022/04/14 07:49:53;;;;;;;20.83;16.33;;;;;;;;;;5023521;28;20182;-73
2022/04/14 07:52:18;;;;;;;27.10;19.10;;;;;;;;;;5019048;28;20179;-73
2022/04/14 07:54:44;;;;;;;25.30;18.50;;;;;;;;;;5028674;28;20260;-73
2022/04/14 07:57:10;;;;;;;25.73;20.70;;;;;;;;;;5028457;28;20177;-73
2022/04/14 07:59:35;;;;;;;26.57;20.63;;;;;;;;;;5020180;28;20266;-73
2022/04/14 08:02:00;;;;;;;26.17;20.23;;;;;;;;;;5022114;28;20375;-73
2022/04/14 08:04:26;;;;;;;25.17;20.30;;;;;;;;;;5023377;28;20216;-73
2022/04/14 08:06:51;;;;;;;22.33;19.93;;;;;;;;;;5025576;28;20188;-73
2022/04/14 08:09:17;;;;;;;26.70;21.87;;;;;;;;;;5025092;28;20267;-73
2022/04/14 08:11:42;;;;;;;27.93;21.60;;;;;;;;;;5027097;28;20180;-73
2022/04/14 08:14:07;;;;;;;21.03;16.77;;;;;;;;;;5028276;28;20172;-73
2022/04/14 08:16:32;;;;;;;25.97;18.83;;;;;;;;;;5034527;28;20192;-73
2022/04/14 08:18:58;;;;;;;22.03;17.70;;;;;;;;;;5028244;28;20249;-73
2022/04/14 08:21:24;;;;;;;24.02;20.38;;;;;;;;;;5031185;28;20192;-73
2022/04/14 08:23:51;;;;;;;26.03;20.23;;;;;;;;;;5030715;28;20223;-73
2022/04/14 08:26:17;;;;;;;21.73;18.33;;;;;;;;;;5023539;28;20215;-73
2022/04/14 08:28:43;;;;;;;26.83;21.33;;;;;;;;;;5031838;28;20233;-73
2022/04/14 08:31:09;;;;;;;21.17;18.87;;;;;;;;;;5027442;28;20189;-73
2022/04/14 08:33:35;;;;;;;26.30;18.13;;;;;;;;;;5021163;28;20174;-73
2022/04/14 08:36:00;;;;;;;25.43;16.57;;;;;;;;;;5028333;28;20206;-73
2022/04/14 08:38:26;;;;;;;20.07;15.83;;;;;;;;;;5023329;28;20236;-73
2022/04/14 08:40:57;;;;;;;21.13;17.07;;;;;;;;;;5030399;28;20187;-73
2022/04/14 08:43:26;;;;;;;22.47;15.47;;;;;;;;;;5026706;28;20203;-73
2022/04/14 08:45:51;;;;;;;21.93;16.67;;;;;;;;;;5022779;28;20184;-73
2022/04/14 08:48:20;;;;;;;19.77;15.73;;;;;;;;;;5020241;28;20212;-73
2022/04/14 08:50:48;;;;;;;23.83;16.23;;;;;;;;;;5023851;28;20174;-73
2022/04/14 08:53:13;;;;;;;21.53;15.03;;;;;;;;;;5039256;28;20277;-73
2022/04/14 08:55:42;;;;;;;20.90;13.33;;;;;;;;;;5033029;28;20277;-73
2022/04/14 08:58:15;;;;;;;19.67;13.93;;;;;;;;;;5035912;28;20195;-73
2022/04/14 09:00:41;;;;;;;18.97;13.73;;;;;;;;;;5044841;28;20175;-73
2022/04/14 09:03:06;;;;;;;18.67;14.30;;;;;;;;;;5026992;28;20190;-73
2022/04/14 09:05:32;;;;;;;17.80;15.80;;;;;;;;;;5024077;28;20205;-73
2022/04/14 09:07:57;;;;;;;20.33;14.07;;;;;;;;;;5026457;28;20210;-73
2022/04/14 09:10:22;;;;;;;21.70;14.80;;;;;;;;;;5028970;28;20198;-73
2022/04/14 09:12:48;;;;;;;19.37;13.23;;;;;;;;;;5028858;28;20189;-73
2022/04/14 09:15:14;;;;;;;17.03;12.87;;;;;;;;;;5025190;28;20300;-72
2022/04/14 09:17:40;;;;;;;16.77;15.03;;;;;;;;;;5020810;28;20261;-72
2022/04/14 09:20:24;;;;;;;15.90;13.67;;;;;;;;;;5031643;28;20198;-73
2022/04/14 09:23:09;;;;;;;16.40;14.47;;;;;;;;;;5033064;28;20192;-72
2022/04/14 09:25:34;;;;;;;17.40;13.33;;;;;;;;;;5019804;28;20180;-73
2022/04/14 09:28:07;;;;;;;16.83;13.87;;;;;;;;;;5037799;28;20239;-73
2022/04/14 09:30:32;;;;;;;14.77;12.00;;;;;;;;;;5024025;28;20224;-73
2022/04/14 09:32:57;;;;;;;14.90;13.33;;;;;;;;;;5029276;28;20179;-73
2022/04/14 09:35:31;;;;;;;17.73;13.27;;;;;;;;;;5019493;28;20210;-73
2022/04/14 09:38:00;;;;;;;16.87;11.63;;;;;;;;;;5027745;28;20270;-73
2022/04/14 09:40:30;;;;;;;17.17;12.83;;;;;;;;;;5022258;28;20179;-73
2022/04/14 09:42:55;;;;;;;16.63;13.73;;;;;;;;;;5027130;28;20241;-73
2022/04/14 09:45:25;;;;;;;13.20;11.53;;;;;;;;;;5025814;28;20172;-73
2022/04/14 09:47:51;;;;;;;18.47;13.40;;;;;;;;;;5024562;28;20236;-73
2022/04/14 09:50:27;;;;;;;14.87;13.13;;;;;;;;;;5023262;28;20602;-73
2022/04/14 09:53:12;;;;;;;15.77;12.17;;;;;;;;;;5026619;28;20271;-73
2022/04/14 09:55:49;;;;;;;14.20;11.40;;;;;;;;;;5019544;28;20193;-73
2022/04/14 09:58:18;;;;;;;16.00;13.63;;;;;;;;;;5035767;28;20206;-73
2022/04/14 10:00:43;;;;;;;14.33;12.17;;;;;;;;;;5023630;28;20228;-73
2022/04/14 10:03:13;;;;;;;14.57;12.57;;;;;;;;;;5027894;28;20204;-73
2022/04/14 10:05:39;;;;;;;16.60;12.17;;;;;;;;;;5029774;28;20204;-73
2022/04/14 10:08:08;;;;;;;17.70;11.03;;;;;;;;;;5018527;28;20200;-73
2022/04/14 10:10:34;;;;;;;16.63;11.70;;;;;;;;;;5023700;28;20178;-73
2022/04/14 10:13:05;;;;;;;14.07;10.47;;;;;;;;;;5040887;28;20172;-73
2022/04/14 10:15:31;;;;;;;17.17;12.77;;;;;;;;;;5032551;28;20175;-73
2022/04/14 10:17:57;;;;;;;13.80;10.60;;;;;;;;;;5021006;28;20182;-73
2022/04/14 10:20:25;;;;;;;14.10;9.27;;;;;;;;;;5023984;28;20193;-73
2022/04/14 10:22:50;;;;;;;19.97;11.13;;;;;;;;;;5036513;28;20190;-73
2022/04/14 10:25:15;;;;;;;9.30;7.47;;;;;;;;;;5026750;28;20185;-73
2022/04/14 10:27:41;;;;;;;15.43;11.20;;;;;;;;;;5024301;28;20226;-73
2022/04/14 10:30:07;;;;;;;13.70;12.27;;;;;;;;;;5025346;28;20213;-73
2022/04/14 10:32:33;;;;;;;14.87;10.47;;;;;;;;;;5038032;28;20187;-73
2022/04/14 10:35:01;;;;;;;13.07;9.80;;;;;;;;;;5025203;28;20236;-73
2022/04/14 10:37:32;;;;;;;17.87;12.93;;;;;;;;;;5026387;28;20192;-73
2022/04/14 10:39:58;;;;;;;15.53;13.20;;;;;;;;;;5036672;28;20257;-73
2022/04/14 10:42:24;;;;;;;13.87;12.37;;;;;;;;;;5026524;28;20273;-73
2022/04/14 10:44:50;;;;;;;15.50;12.70;;;;;;;;;;5018507;28;20186;-73
2022/04/14 10:47:34;;;;;;;13.37;11.97;;;;;;;;;;5026678;28;20623;-73
2022/04/14 10:50:00;;;;;;;12.57;11.27;;;;;;;;;;5029866;28;20193;-73
2022/04/14 10:52:26;;;;;;;14.67;11.20;;;;;;;;;;5023555;28;20201;-73
2022/04/14 10:54:58;;;;;;;17.97;13.47;;;;;;;;;;5024936;28;20283;-73
2022/04/14 10:57:37;;;;;;;13.30;11.37;;;;;;;;;;5028842;28;20216;-73
2022/04/14 11:00:22;;;;;;;16.03;12.87;;;;;;;;;;5024046;28;20183;-73
2022/04/14 11:03:03;;;;;;;10.83;8.90;;;;;;;;;;5020063;28;20192;-73
2022/04/14 11:05:38;;;;;;;13.93;12.23;;;;;;;;;;5034361;28;20261;-73
2022/04/14 11:08:22;;;;;;;17.20;14.33;;;;;;;;;;5021510;28;20250;-73
2022/04/14 11:10:54;;;;;;;15.90;12.50;;;;;;;;;;5019236;28;20176;-73
2022/04/14 11:13:19;;;;;;;17.97;16.07;;;;;;;;;;5026447;28;20184;-73
2022/04/14 11:15:44;;;;;;;16.23;13.57;;;;;;;;;;5023645;28;20204;-73
2022/04/14 11:18:09;;;;;;;16.77;15.07;;;;;;;;;;5021801;28;20220;-73
2022/04/14 11:20:35;;;;;;;17.10;14.23;;;;;;;;;;5025275;28;20177;-73
2022/04/14 11:23:20;;;;;;;18.40;15.27;;;;;;;;;;5041312;28;20185;-73
2022/04/14 11:25:50;;;;;;;21.70;14.87;;;;;;;;;;5020462;28;20176;-73
2022/04/14 11:28:18;;;;;;;16.37;12.00;;;;;;;;;;5019269;28;20214;-73
2022/04/14 11:30:44;;;;;;;16.03;10.97;;;;;;;;;;5032276;28;20235;-73
2022/04/14 11:33:13;;;;;;;17.97;15.13;;;;;;;;;;5022746;28;20186;-73
2022/04/14 11:35:43;;;;;;;18.10;16.17;;;;;;;;;;5024113;28;20240;-73
2022/04/14 11:38:10;;;;;;;16.27;14.57;;;;;;;;;;5020778;28;20201;-71
2022/04/14 11:40:38;;;;;;;18.60;15.67;;;;;;;;;;5017565;28;20221;-70
2022/04/14 11:43:06;;;;;;;15.30;13.70;;;;;;;;;;5024798;28;20186;-70
2022/04/14 11:45:31;;;;;;;18.80;16.40;;;;;;;;;;5025134;28;20175;-71
2022/04/14 11:48:03;;;;;;;18.03;14.17;;;;;;;;;;5024495;28;20331;-70
2022/04/14 11:50:29;;;;;;;20.67;14.53;;;;;;;;;;5025509;28;20272;-70
2022/04/14 11:52:55;;;;;;;20.47;15.83;;;;;;;;;;5025808;28;20259;-71
2022/04/14 11:55:40;;;;;;;17.07;15.27;;;;;;;;;;5039164;28;20180;-70
2022/04/14 11:58:09;;;;;;;19.67;16.17;;;;;;;;;;5035352;28;20237;-70
2022/04/14 12:00:43;;;;;;;19.63;16.50;;;;;;;;;;5029534;28;20216;-70
2022/04/14 12:03:09;;;;;;;17.80;15.50;;;;;;;;;;5022931;28;20265;-70
2022/04/14 12:05:34;;;;;;;18.90;16.00;;;;;;;;;;5023413;28;20291;-70
2022/04/14 12:08:06;;;;;;;17.27;15.47;;;;;;;;;;5025984;28;20195;-70
2022/04/14 12:10:32;;;;;;;20.73;18.63;;;;;;;;;;5029532;28;20239;-71
2022/04/14 12:13:04;;;;;;;21.47;19.17;;;;;;;;;;5016586;28;20183;-71
2022/04/14 12:15:29;;;;;;;21.97;16.03;;;;;;;;;;5036120;28;20193;-71
2022/04/14 12:18:03;;;;;;;19.23;17.10;;;;;;;;;;5023343;28;20179;-71
2022/04/14 12:20:34;;;;;;;23.57;16.83;;;;;;;;;;5021022;28;20237;-71
2022/04/14 12:22:59;;;;;;;18.80;15.30;;;;;;;;;;5021235;28;20191;-70
2022/04/14 12:25:24;;;;;;;17.03;15.00;;;;;;;;;;5017565;28;20188;-71
2022/04/14 12:27:50;;;;;;;17.03;14.53;;;;;;;;;;5023254;28;20274;-71
2022/04/14 12:30:15;;;;;;;19.43;16.43;;;;;;;;;;5016783;28;20237;-71
2022/04/14 12:32:43;;;;;;;17.33;15.57;;;;;;;;;;5012068;28;20285;-71
2022/04/14 12:35:10;;;;;;;17.43;14.93;;;;;;;;;;5017027;28;20198;-70
2022/04/14 12:37:39;;;;;;;17.90;16.00;;;;;;;;;;5024350;28;20173;-71
2022/04/14 12:40:15;;;;;;;17.27;14.47;;;;;;;;;;5021695;28;20246;-71
2022/04/14 12:42:41;;;;;;;17.07;12.90;;;;;;;;;;5023775;28;20183;-70
2022/04/14 12:45:08;;;;;;;20.47;15.83;;;;;;;;;;5026153;28;20186;-71
2022/04/14 12:47:33;;;;;;;19.43;17.33;;;;;;;;;;5026090;28;20181;-71
2022/04/14 12:49:59;;;;;;;19.00;14.27;;;;;;;;;;5024017;28;20257;-71
2022/04/14 12:52:26;;;;;;;20.60;18.37;;;;;;;;;;5018506;28;20196;-71
2022/04/14 12:54:52;;;;;;;17.43;15.60;;;;;;;;;;5036995;28;20180;-71
2022/04/14 12:57:19;;;;;;;19.00;17.03;;;;;;;;;;5021728;28;20184;-73
2022/04/14 13:00:00;;;;;;;27.70;17.47;;;;;;;;;;5036205;28;20184;-72
2022/04/14 13:02:26;;;;;;;17.03;15.30;;;;;;;;;;5043701;28;20202;-71
2022/04/14 13:05:03;;;;;;;16.83;15.23;;;;;;;;;;5024100;28;20470;-71
2022/04/14 13:07:28;;;;;;;15.80;13.23;;;;;;;;;;5041816;28;20207;-71
2022/04/14 13:10:00;;;;;;;18.17;13.03;;;;;;;;;;5026838;28;20215;-72
2022/04/14 13:12:42;;;;;;;16.77;13.10;;;;;;;;;;5027478;28;20173;-72
2022/04/14 13:15:11;;;;;;;15.57;13.50;;;;;;;;;;5027097;28;20173;-71
2022/04/14 13:17:38;;;;;;;17.67;14.67;;;;;;;;;;5025267;28;20184;-72
2022/04/14 13:20:10;;;;;;;18.77;14.90;;;;;;;;;;5028387;28;20277;-72
2022/04/14 13:22:35;;;;;;;18.60;15.60;;;;;;;;;;5018612;28;20214;-72
2022/04/14 13:25:00;;;;;;;18.67;16.83;;;;;;;;;;5025996;28;20217;-71
2022/04/14 13:27:25;;;;;;;23.27;18.13;;;;;;;;;;5025582;28;20229;-72
2022/04/14 13:29:50;;;;;;;25.50;18.20;;;;;;;;;;5027123;28;20202;-79
2022/04/14 13:32:16;;;;;;;19.27;15.77;;;;;;;;;;5028329;28;20178;-72
2022/04/14 13:34:41;;;;;;;18.07;14.33;;;;;;;;;;5026300;28;20203;-72
2022/04/14 13:37:06;;;;;;;21.10;17.33;;;;;;;;;;5025821;28;20178;-72
2022/04/14 13:39:31;;;;;;;19.33;16.17;;;;;;;;;;5028292;28;20759;-72
2022/04/14 13:41:56;;;;;;;18.63;14.73;;;;;;;;;;5020128;28;20183;-72
2022/04/14 13:44:22;;;;;;;21.73;19.40;;;;;;;;;;5024956;28;20188;-72
2022/04/14 13:46:47;;;;;;;23.13;20.40;;;;;;;;;;5026311;28;20181;-72
2022/04/14 13:49:12;;;;;;;19.80;14.77;;;;;;;;;;5028463;28;20216;-72
2022/04/14 13:51:37;;;;;;;19.30;16.23;;;;;;;;;;5026416;28;20237;-72
2022/04/14 13:54:03;;;;;;;21.33;18.93;;;;;;;;;;5029454;28;20189;-72
2022/04/14 13:56:28;;;;;;;18.33;16.07;;;;;;;;;;5033278;28;20681;-72
2022/04/14 13:58:54;;;;;;;17.83;14.87;;;;;;;;;;5025459;28;20214;-72
2022/04/14 14:01:19;;;;;;;17.40;14.30;;;;;;;;;;5023556;28;20188;-72
2022/04/14 14:03:44;;;;;;;19.73;16.23;;;;;;;;;;5023870;28;20209;-72
2022/04/14 14:06:09;;;;;;;17.33;15.60;;;;;;;;;;5029728;28;20174;-72
2022/04/14 14:08:35;;;;;;;17.47;15.07;;;;;;;;;;5022494;28;20195;-72
2022/04/14 14:11:02;;;;;;;18.83;16.23;;;;;;;;;;5024858;28;20180;-72
2022/04/14 14:13:28;;;;;;;17.37;15.37;;;;;;;;;;5021175;28;20212;-72
2022/04/14 14:15:53;;;;;;;22.60;17.20;;;;;;;;;;5025189;28;20182;-72
2022/04/14 14:18:19;;;;;;;19.03;16.07;;;;;;;;;;5029214;28;20261;-72